Almira, Washington
Current Conditions -  °F | °C
As of 3:53 AM on Saturday 25 Oct 2014 (Local Time) from KEPH Reporting Station
Clear Clear  
Wind Chill:   Ceiling: Unl
Heat Index:   Visibility: 10mi
Dew Point:   Wind: 14mph
Humidity: 83%   Direction: 330°NNW
Pressure: 29.78"   Gusts: NA
Location:  47.71°N, 118.94°W
Report Text: KEPH 251053Z AUTO 33012KT 10SM CLR 09/07 A2978 RMK AO2 SLP086 T00940067
Loading
Personal Weather Stations






























Interactive Weather Map New forecast layout! Learn more

10-Day Weather Forecast

Advertisements
Track Severe Weather on mobile